Time;durP1;ratioP1;P1;durP2;ratioP2;P2;SDS_P1;SDS_P2;PMS_P1;PMS_P2;Temp;Humidity;BMP_temperature;BMP_pressure;BME280_temperature;BME280_humidity;BME280_pressure;Samples;Min_cycle;Max_cycle;Signal;HPM_P1;HPM_P2
2023/06/26 00:00:29;;;;;;;1999.90;999.90;;;22.90;99.90;;;;;;5060309;28;20092;-84
2023/06/26 00:02:55;;;;;;;1999.90;999.90;;;22.90;99.90;;;;;;5104966;28;20048;-85
2023/06/26 00:05:21;;;;;;;1999.90;999.90;;;22.90;99.90;;;;;;5071909;28;20049;-85
2023/06/26 00:07:47;;;;;;;1999.90;999.90;;;22.80;99.90;;;;;;5072996;28;20135;-85
2023/06/26 00:10:12;;;;;;;1999.90;999.90;;;22.80;99.90;;;;;;5074498;28;20148;-85
2023/06/26 00:12:38;;;;;;;1999.90;999.90;;;22.80;99.90;;;;;;5070393;28;20044;-85
2023/06/26 00:15:04;;;;;;;1999.90;999.90;;;22.90;99.90;;;;;;5106176;28;20090;-85
2023/06/26 00:17:30;;;;;;;1999.90;999.90;;;23.00;99.90;;;;;;5071913;28;20099;-85
2023/06/26 00:19:56;;;;;;;1999.90;999.90;;;23.00;99.90;;;;;;5071575;28;20076;-88
2023/06/26 00:22:22;;;;;;;1999.90;999.90;;;23.00;99.90;;;;;;5073438;28;20083;-84
2023/06/26 00:24:47;;;;;;;1999.90;999.90;;;23.00;99.90;;;;;;5053165;28;20045;-84
2023/06/26 00:27:13;;;;;;;1999.90;999.90;;;22.90;99.90;;;;;;5055591;28;20041;-84
2023/06/26 00:29:39;;;;;;;1999.90;999.90;;;22.90;99.90;;;;;;5069575;28;20047;-84
2023/06/26 00:32:06;;;;;;;1999.90;999.90;;;22.80;99.90;;;;;;5073502;28;20048;-85
2023/06/26 00:34:31;;;;;;;1999.90;999.90;;;22.90;99.90;;;;;;5059892;28;20367;-84
2023/06/26 00:36:57;;;;;;;1999.90;999.90;;;22.80;99.90;;;;;;5072663;28;20063;-85
2023/06/26 00:39:25;;;;;;;1999.90;999.90;;;22.80;99.90;;;;;;5082517;28;20405;-85
2023/06/26 00:41:53;;;;;;;1999.90;999.90;;;22.80;99.90;;;;;;5036598;28;20166;-84
2023/06/26 00:44:19;;;;;;;1999.90;999.90;;;22.70;99.90;;;;;;5054809;28;20075;-84
2023/06/26 00:46:45;;;;;;;1999.90;999.90;;;22.60;99.90;;;;;;5071051;28;20416;-84
2023/06/26 00:49:12;;;;;;;1999.90;999.90;;;22.70;99.90;;;;;;5068317;28;20127;-85
2023/06/26 00:51:39;;;;;;;1999.90;999.90;;;22.60;99.90;;;;;;5054146;28;20053;-85
2023/06/26 00:54:05;;;;;;;1999.90;999.90;;;22.60;99.90;;;;;;5056014;28;20499;-88
2023/06/26 00:56:31;;;;;;;1999.90;999.90;;;22.60;99.90;;;;;;5069111;28;20052;-86
2023/06/26 00:58:57;;;;;;;1999.90;999.90;;;22.50;99.90;;;;;;5069902;28;20427;-86
2023/06/26 01:01:25;;;;;;;1999.90;999.90;;;22.50;99.90;;;;;;5072244;28;20056;-86
2023/06/26 01:03:52;;;;;;;1999.90;999.90;;;22.50;99.90;;;;;;5060588;28;20119;-85
2023/06/26 01:06:21;;;;;;;1999.90;999.90;;;22.40;99.90;;;;;;5070867;28;20074;-87
2023/06/26 01:08:47;;;;;;;1999.90;999.90;;;22.40;99.90;;;;;;5070947;28;20083;-86
2023/06/26 01:11:14;;;;;;;1999.90;999.90;;;22.40;99.90;;;;;;5071423;28;20481;-87
2023/06/26 01:13:42;;;;;;;1999.90;999.90;;;22.40;99.90;;;;;;5063740;28;20555;-86
2023/06/26 01:16:09;;;;;;;1999.90;999.90;;;22.30;99.90;;;;;;5064157;28;20037;-86
2023/06/26 01:18:36;;;;;;;1999.90;999.90;;;22.30;99.90;;;;;;5054473;28;20045;-86
2023/06/26 01:21:04;;;;;;;1999.90;999.90;;;22.30;99.90;;;;;;5078096;28;20135;-86
2023/06/26 01:24:20;;;;;;;1999.90;999.90;;;22.20;99.90;;;;;;5102206;28;20059;-86
2023/06/26 01:26:49;;;;;;;1999.90;999.90;;;22.20;99.90;;;;;;5100320;28;20078;-87
2023/06/26 01:29:16;;;;;;;1999.90;999.90;;;22.20;99.90;;;;;;5070289;28;20049;-86
2023/06/26 01:31:43;;;;;;;1999.90;999.90;;;22.10;99.90;;;;;;5068198;28;20052;-86
2023/06/26 01:34:09;;;;;;;1999.90;999.90;;;22.10;99.90;;;;;;5067811;28;20056;-85
2023/06/26 01:36:37;;;;;;;1999.90;999.90;;;22.10;99.90;;;;;;5067120;28;20048;-85
2023/06/26 01:39:02;;;;;;;1999.90;999.90;;;22.00;99.90;;;;;;5072001;28;20428;-84
2023/06/26 01:41:28;;;;;;;1999.90;999.90;;;22.00;99.90;;;;;;5101408;28;20056;-85
2023/06/26 01:44:06;;;;;;;1999.90;999.90;;;22.00;99.90;;;;;;5067165;28;20059;-84
2023/06/26 01:46:47;;;;;;;1999.90;999.90;;;22.00;99.90;;;;;;5047524;28;20090;-83
2023/06/26 01:49:29;;;;;;;1999.90;999.90;;;22.00;99.90;;;;;;5072456;28;20409;-84
2023/06/26 01:52:07;;;;;;;1999.90;999.90;;;21.90;99.90;;;;;;5071035;28;20139;-85
2023/06/26 01:54:39;;;;;;;1999.90;999.90;;;22.00;99.90;;;;;;5085783;28;20536;-84
2023/06/26 01:57:06;;;;;;;1999.90;999.90;;;21.90;99.90;;;;;;5071203;28;20052;-85
2023/06/26 01:59:34;;;;;;;1999.90;999.90;;;21.50;99.90;;;;;;5071014;28;20049;-85
2023/06/26 02:02:03;;;;;;;1999.90;999.90;;;21.80;99.90;;;;;;5070336;28;20056;-85
2023/06/26 02:04:29;;;;;;;1999.90;999.90;;;21.80;99.90;;;;;;5071325;28;20048;-86
2023/06/26 02:06:55;;;;;;;1999.90;999.90;;;21.80;99.90;;;;;;5069600;28;20070;-85
2023/06/26 02:09:20;;;;;;;1999.90;999.90;;;21.80;99.90;;;;;;5072064;28;20094;-85
2023/06/26 02:11:46;;;;;;;1999.90;999.90;;;21.70;99.90;;;;;;5071889;28;20049;-86
2023/06/26 02:14:12;;;;;;;1999.90;999.90;;;21.70;99.90;;;;;;5071633;28;20055;-84
2023/06/26 02:16:38;;;;;;;1999.90;999.90;;;21.60;99.90;;;;;;5058245;28;20056;-84
2023/06/26 02:19:03;;;;;;;1999.90;999.90;;;21.60;99.90;;;;;;5052519;28;20079;-84
2023/06/26 02:21:29;;;;;;;1999.90;999.90;;;21.60;99.90;;;;;;5052091;28;20091;-84
2023/06/26 02:23:54;;;;;;;1999.90;999.90;;;21.60;99.90;;;;;;5050774;28;20094;-84
2023/06/26 02:26:20;;;;;;;1999.90;999.90;;;21.50;99.90;;;;;;5061890;28;20087;-85
2023/06/26 02:28:46;;;;;;;1999.90;999.90;;;21.50;99.90;;;;;;5071105;28;20055;-85
2023/06/26 02:31:12;;;;;;;1999.90;999.90;;;21.50;99.90;;;;;;5071177;28;20048;-85
2023/06/26 02:33:38;;;;;;;1999.90;999.90;;;21.50;99.90;;;;;;5057248;28;20044;-85
2023/06/26 02:36:04;;;;;;;1999.90;999.90;;;21.50;99.90;;;;;;5103497;28;20052;-85
2023/06/26 02:38:32;;;;;;;1999.90;999.90;;;21.50;99.90;;;;;;5071793;28;20598;-84
2023/06/26 02:40:58;;;;;;;1999.90;999.90;;;21.50;99.90;;;;;;5104359;28;20057;-83
2023/06/26 02:43:24;;;;;;;1999.90;999.90;;;21.90;99.90;;;;;;5072061;28;20441;-87
2023/06/26 02:45:49;;;;;;;1999.90;999.90;;;21.50;99.90;;;;;;5070782;28;20049;-84
2023/06/26 02:48:15;;;;;;;1999.90;999.90;;;21.50;99.90;;;;;;5071380;28;20041;-84
2023/06/26 02:50:41;;;;;;;1999.90;999.90;;;21.50;99.90;;;;;;5089530;28;20489;-84
2023/06/26 02:53:06;;;;;;;1999.90;999.90;;;21.50;99.90;;;;;;5073764;28;20131;-84
2023/06/26 02:55:34;;;;;;;1999.90;999.90;;;21.50;99.90;;;;;;5072907;28;20049;-85
2023/06/26 02:57:59;;;;;;;1999.90;999.90;;;21.50;99.90;;;;;;5075018;28;20557;-83
2023/06/26 03:00:25;;;;;;;1999.90;999.90;;;21.50;99.90;;;;;;5075719;28;20036;-85
2023/06/26 03:02:51;;;;;;;1999.90;999.90;;;21.40;99.90;;;;;;5071207;28;20493;-84
2023/06/26 03:05:17;;;;;;;1999.90;999.90;;;21.40;99.90;;;;;;5075374;28;20174;-86
2023/06/26 03:07:42;;;;;;;1999.90;999.90;;;21.30;99.90;;;;;;5065003;28;20110;-84
2023/06/26 03:10:08;;;;;;;1999.90;999.90;;;21.30;99.90;;;;;;5074748;28;20480;-85
2023/06/26 03:12:34;;;;;;;1999.90;999.90;;;21.20;99.90;;;;;;5073153;28;20079;-84
2023/06/26 03:14:59;;;;;;;1999.90;999.90;;;21.30;99.90;;;;;;5074174;28;20086;-84
2023/06/26 03:17:25;;;;;;;1999.90;999.90;;;21.30;99.90;;;;;;5074800;28;20052;-83
2023/06/26 03:19:51;;;;;;;1999.90;999.90;;;21.30;99.90;;;;;;5073998;28;20047;-84
2023/06/26 03:22:16;;;;;;;1999.90;999.90;;;21.30;99.90;;;;;;5075054;28;20045;-84
2023/06/26 03:24:44;;;;;;;1999.90;999.90;;;21.30;99.90;;;;;;5072317;28;20048;-84
2023/06/26 03:27:09;;;;;;;;;;;21.30;99.90;;;;;;5075856;28;20581;-84
2023/06/26 03:29:35;;;;;;;1999.90;999.90;;;21.30;99.90;;;;;;5056376;28;19960;-84
2023/06/26 03:32:01;;;;;;;1999.90;999.90;;;21.30;99.90;;;;;;5090514;28;20048;-85
2023/06/26 03:34:26;;;;;;;1999.90;999.90;;;21.20;99.90;;;;;;5074761;28;20142;-84
2023/06/26 03:36:52;;;;;;;1999.90;999.90;;;21.20;99.90;;;;;;5107097;28;20053;-85
2023/06/26 03:39:18;;;;;;;1999.90;999.90;;;21.20;99.90;;;;;;5055529;28;20090;-84
2023/06/26 03:41:43;;;;;;;1999.90;999.90;;;21.20;99.90;;;;;;5059676;28;20049;-84
2023/06/26 03:44:09;;;;;;;1999.90;999.90;;;21.30;99.90;;;;;;5069725;28;20658;-84
2023/06/26 03:46:35;;;;;;;1999.90;999.90;;;21.30;99.90;;;;;;5074086;28;20093;-84
2023/06/26 03:49:01;;;;;;;1999.90;999.90;;;21.30;99.90;;;;;;5059197;28;20444;-83
2023/06/26 03:51:26;;;;;;;1999.90;999.90;;;21.40;99.90;;;;;;5057514;28;20048;-86
2023/06/26 03:53:52;;;;;;;1999.90;999.90;;;21.30;99.90;;;;;;5073836;28;20048;-84
2023/06/26 03:56:18;;;;;;;1999.90;999.90;;;21.30;99.90;;;;;;5073174;28;20094;-84
2023/06/26 03:58:43;;;;;;;1999.90;999.90;;;21.40;99.90;;;;;;5071414;28;20040;-85
2023/06/26 04:01:09;;;;;;;1999.90;999.90;;;21.40;99.90;;;;;;5073390;28;20053;-85
2023/06/26 04:03:34;;;;;;;1999.90;999.90;;;21.40;99.90;;;;;;5074677;28;20477;-85
2023/06/26 04:06:00;;;;;;;1999.90;999.90;;;21.40;99.90;;;;;;5063896;28;20385;-85
2023/06/26 04:08:26;;;;;;;1999.90;999.90;;;21.40;99.90;;;;;;5051593;28;20053;-85
2023/06/26 04:10:53;;;;;;;1999.90;999.90;;;21.40;99.90;;;;;;5096250;27;20504;-85
2023/06/26 04:13:19;;;;;;;1999.90;999.90;;;21.40;99.90;;;;;;5061058;28;20063;-87
2023/06/26 04:15:45;;;;;;;1999.90;999.90;;;21.40;99.90;;;;;;5076195;28;20044;-85
2023/06/26 04:18:10;;;;;;;1999.90;999.90;;;21.40;99.90;;;;;;5104677;28;20378;-85
2023/06/26 04:20:40;;;;;;;1999.90;999.90;;;21.30;99.90;;;;;;5067075;28;20041;-85
2023/06/26 04:23:06;;;;;;;1999.90;999.90;;;21.30;99.90;;;;;;5067877;28;20047;-85
2023/06/26 04:25:32;;;;;;;1999.90;999.90;;;21.30;99.90;;;;;;5073668;28;20032;-85
2023/06/26 04:27:58;;;;;;;1999.90;999.90;;;21.30;99.90;;;;;;5051541;28;20549;-86
2023/06/26 04:30:23;;;;;;;1999.90;999.90;;;21.30;99.90;;;;;;5071501;28;20094;-85
2023/06/26 04:32:49;;;;;;;1999.90;999.90;;;21.30;99.90;;;;;;5070923;28;20376;-85
2023/06/26 04:35:15;;;;;;;1999.90;999.90;;;21.30;99.90;;;;;;5069543;28;20052;-85
2023/06/26 04:37:40;;;;;;;1999.90;999.90;;;21.40;99.90;;;;;;5060135;28;20048;-84
2023/06/26 04:40:09;;;;;;;1999.90;999.90;;;21.50;99.90;;;;;;5083489;28;20431;-85
2023/06/26 04:42:35;;;;;;;1999.90;999.90;;;21.70;99.90;;;;;;5068363;28;20032;-85
2023/06/26 04:45:02;;;;;;;1999.90;999.90;;;21.80;99.90;;;;;;5066952;28;20124;-86
2023/06/26 04:47:28;;;;;;;1999.90;999.90;;;21.80;99.90;;;;;;5053686;28;20166;-84
2023/06/26 04:49:54;;;;;;;1999.90;999.90;;;21.90;99.90;;;;;;5050623;28;20084;-86
2023/06/26 04:52:20;;;;;;;1999.90;999.90;;;21.90;99.90;;;;;;5102808;28;20052;-86
2023/06/26 04:54:46;;;;;;;1999.90;999.90;;;22.00;99.90;;;;;;5069075;28;20040;-85
2023/06/26 04:57:12;;;;;;;1999.90;999.90;;;22.00;99.90;;;;;;5067095;28;20036;-86
2023/06/26 04:59:37;;;;;;;1999.90;999.90;;;21.90;99.90;;;;;;5067925;28;20077;-85
2023/06/26 05:02:04;;;;;;;1999.90;999.90;;;21.90;99.90;;;;;;5058727;28;20091;-86
2023/06/26 05:04:30;;;;;;;1999.90;999.90;;;21.90;99.90;;;;;;5103198;28;20049;-85
2023/06/26 05:06:56;;;;;;;1999.90;999.90;;;21.90;99.90;;;;;;5069815;28;20158;-86
2023/06/26 05:09:22;;;;;;;1999.90;999.90;;;21.80;99.90;;;;;;5069557;28;20404;-84
2023/06/26 05:11:47;;;;;;;1999.90;999.90;;;21.80;99.90;;;;;;5098864;28;20070;-88
2023/06/26 05:14:13;;;;;;;1999.90;999.90;;;21.80;99.90;;;;;;5037588;28;20053;-86
2023/06/26 05:16:39;;;;;;;1999.90;999.90;;;21.80;99.90;;;;;;5068188;28;20540;-85
2023/06/26 05:19:04;;;;;;;1999.90;999.90;;;21.80;99.90;;;;;;5069756;28;20055;-85
2023/06/26 05:21:30;;;;;;;1999.90;999.90;;;21.80;99.90;;;;;;5066497;28;20044;-85
2023/06/26 05:23:58;;;;;;;1999.90;999.90;;;21.80;99.90;;;;;;5070793;28;20123;-84
2023/06/26 05:26:24;;;;;;;1999.90;999.90;;;21.70;99.90;;;;;;5057921;28;20044;-84
2023/06/26 05:28:50;;;;;;;1999.90;999.90;;;21.80;99.90;;;;;;5055875;28;20052;-85
2023/06/26 05:31:16;;;;;;;1999.90;999.90;;;21.80;99.90;;;;;;5062993;28;20056;-86
2023/06/26 05:33:44;;;;;;;1999.90;999.90;;;21.70;99.90;;;;;;5063868;28;20045;-85
2023/06/26 05:36:12;;;;;;;1999.90;999.90;;;21.70;99.90;;;;;;5054406;28;20051;-84
2023/06/26 05:38:38;;;;;;;1999.90;999.90;;;21.70;99.90;;;;;;5066670;28;20044;-84
2023/06/26 05:41:04;;;;;;;1999.90;999.90;;;21.60;99.90;;;;;;5068536;28;20106;-89
2023/06/26 05:43:29;;;;;;;1999.90;999.90;;;21.50;99.90;;;;;;5068977;28;20095;-84
2023/06/26 05:45:57;;;;;;;1999.90;999.90;;;21.60;99.90;;;;;;5085523;28;20051;-84
2023/06/26 05:48:23;;;;;;;1999.90;999.90;;;21.60;99.90;;;;;;5071370;28;20241;-85
2023/06/26 05:50:49;;;;;;;1999.90;999.90;;;21.60;99.90;;;;;;5068687;28;20571;-85
2023/06/26 05:53:15;;;;;;;1999.90;999.90;;;21.70;99.90;;;;;;5101953;28;20191;-85
2023/06/26 05:55:42;;;;;;;1999.90;999.90;;;21.30;99.90;;;;;;5070339;28;20072;-84
2023/06/26 05:58:11;;;;;;;1999.90;999.90;;;21.70;99.90;;;;;;5071508;28;20059;-85
2023/06/26 06:00:38;;;;;;;1999.90;999.90;;;21.60;99.90;;;;;;5071357;28;20051;-83
2023/06/26 06:03:04;;;;;;;1999.90;999.90;;;21.60;99.90;;;;;;5071221;28;20052;-84
2023/06/26 06:05:30;;;;;;;1999.90;999.90;;;21.60;99.90;;;;;;5096890;28;20072;-85
2023/06/26 06:07:56;;;;;;;1999.90;999.90;;;21.70;99.90;;;;;;5071829;28;20504;-84
2023/06/26 06:10:22;;;;;;;1999.90;999.90;;;21.80;99.90;;;;;;5102746;28;20056;-85
2023/06/26 06:12:47;;;;;;;1999.90;999.90;;;21.90;99.90;;;;;;5071351;28;20076;-85
2023/06/26 06:15:13;;;;;;;1999.90;999.90;;;21.90;99.90;;;;;;5102898;28;20119;-85
2023/06/26 06:17:39;;;;;;;1999.90;999.90;;;21.90;99.90;;;;;;5071311;28;20041;-85
2023/06/26 06:20:06;;;;;;;1999.90;999.90;;;21.80;99.90;;;;;;5087725;28;20052;-86
2023/06/26 06:22:32;;;;;;;1999.90;999.90;;;21.80;99.90;;;;;;5084418;28;20056;-86
2023/06/26 06:24:58;;;;;;;1999.90;999.90;;;21.80;99.90;;;;;;5090685;28;20048;-85
2023/06/26 06:27:23;;;;;;;1999.90;999.90;;;21.70;99.90;;;;;;5073249;28;20075;-85
2023/06/26 06:29:49;;;;;;;1999.90;999.90;;;21.70;99.90;;;;;;5071237;28;20097;-86
2023/06/26 06:32:15;;;;;;;1999.90;999.90;;;21.60;99.90;;;;;;5073384;28;20084;-85
2023/06/26 06:34:40;;;;;;;1999.90;999.90;;;21.70;99.90;;;;;;5074522;28;20048;-85
2023/06/26 06:37:06;;;;;;;1999.90;999.90;;;21.70;99.90;;;;;;5074401;28;20040;-85
2023/06/26 06:39:32;;;;;;;1999.90;999.90;;;21.70;99.90;;;;;;5070552;28;20496;-85
2023/06/26 06:41:58;;;;;;;1999.90;999.90;;;21.70;99.90;;;;;;5057896;28;20048;-85
2023/06/26 06:44:23;;;;;;;1999.90;999.90;;;21.80;99.90;;;;;;5073459;28;20128;-86
2023/06/26 06:46:49;;;;;;;1999.90;999.90;;;21.90;99.90;;;;;;5072457;28;20052;-85
2023/06/26 06:49:15;;;;;;;1999.90;999.90;;;21.90;99.90;;;;;;5090828;28;20055;-85
2023/06/26 06:51:40;;;;;;;1999.90;999.90;;;22.10;99.90;;;;;;5072976;28;20040;-86
2023/06/26 06:54:06;;;;;;;1999.90;999.90;;;22.50;99.90;;;;;;5073520;28;20052;-86
2023/06/26 06:56:32;;;;;;;1999.90;999.90;;;22.80;99.90;;;;;;5061709;28;20385;-86
2023/06/26 06:58:58;;;;;;;1999.90;999.90;;;22.90;99.90;;;;;;5073582;28;20052;-86
2023/06/26 07:01:23;;;;;;;1999.90;999.90;;;22.90;99.90;;;;;;5074812;28;20044;-85
2023/06/26 07:03:49;;;;;;;1999.90;999.90;;;22.80;99.90;;;;;;5072515;28;20087;-87
2023/06/26 07:06:15;;;;;;;1999.90;999.90;;;22.70;99.90;;;;;;5073532;28;20519;-85
2023/06/26 07:08:40;;;;;;;1999.90;999.90;;;22.60;99.90;;;;;;5072886;28;20257;-85
2023/06/26 07:11:06;;;;;;;1999.90;999.90;;;22.90;99.90;;;;;;5073747;28;20091;-86
2023/06/26 07:13:32;;;;;;;1999.90;999.90;;;23.90;99.90;;;;;;5072529;28;20274;-85
2023/06/26 07:15:57;;;;;;;1999.90;999.90;;;25.20;99.90;;;;;;5072484;28;20083;-85
2023/06/26 07:18:23;;;;;;;1999.90;999.90;;;26.60;99.90;;;;;;5073263;28;20045;-85
2023/06/26 07:20:49;;;;;;;1999.90;999.90;;;27.80;99.90;;;;;;5072044;28;20037;-86
2023/06/26 07:23:14;;;;;;;1999.90;999.90;;;28.80;99.90;;;;;;5072895;28;20054;-90
2023/06/26 07:25:40;;;;;;;1999.90;999.90;;;29.40;99.90;;;;;;5074757;28;20477;-85
2023/06/26 07:28:13;;;;;;;1999.90;999.90;;;30.00;99.90;;;;;;5040402;28;20132;-88
2023/06/26 07:30:39;;;;;;;1999.90;999.90;;;30.70;99.90;;;;;;5054293;28;20060;-85
2023/06/26 07:33:04;;;;;;;1999.90;999.90;;;31.50;99.90;;;;;;5071187;28;20044;-86
2023/06/26 07:35:30;;;;;;;1999.90;999.90;;;32.10;99.90;;;;;;5070829;28;20052;-86
2023/06/26 07:37:56;;;;;;;1999.90;999.90;;;32.40;99.90;;;;;;5073583;28;20469;-85
2023/06/26 07:40:22;;;;;;;1999.90;999.90;;;32.90;99.90;;;;;;5072528;28;20044;-85
2023/06/26 07:42:47;;;;;;;1999.90;999.90;;;33.30;99.90;;;;;;5088404;28;20166;-85
2023/06/26 07:45:13;;;;;;;1999.90;999.90;;;33.50;99.90;;;;;;5073170;28;20101;-85
2023/06/26 07:47:39;;;;;;;1999.90;999.90;;;33.10;99.90;;;;;;5073583;28;20052;-84
2023/06/26 07:50:05;;;;;;;1999.90;999.90;;;32.60;99.90;;;;;;5073488;28;20047;-85
2023/06/26 07:52:31;;;;;;;1999.90;999.90;;;32.60;99.90;;;;;;5072329;28;20052;-85
2023/06/26 07:54:57;;;;;;;1999.90;999.90;;;32.90;99.90;;;;;;5071918;28;20071;-85
2023/06/26 07:57:23;;;;;;;1999.90;999.90;;;33.20;99.90;;;;;;5088292;28;20084;-85
2023/06/26 07:59:50;;;;;;;1999.90;999.90;;;33.30;99.90;;;;;;5073679;28;20658;-85
2023/06/26 08:02:16;;;;;;;1999.90;999.90;;;33.10;99.90;;;;;;5072547;28;20515;-84
2023/06/26 08:04:41;;;;;;;1999.90;999.90;;;33.20;99.90;;;;;;5073125;28;20047;-85
2023/06/26 08:07:07;;;;;;;1999.90;999.90;;;33.20;99.90;;;;;;5088259;28;20056;-85
2023/06/26 08:09:33;;;;;;;1999.90;999.90;;;32.90;99.90;;;;;;5072660;28;20192;-85
2023/06/26 08:11:59;;;;;;;1999.90;999.90;;;32.80;99.90;;;;;;5073139;28;20063;-86
2023/06/26 08:14:25;;;;;;;1999.90;999.90;;;33.00;99.90;;;;;;5071848;28;20510;-86
2023/06/26 08:16:51;;;;;;;1999.90;999.90;;;33.10;99.90;;;;;;5089955;28;20044;-86
2023/06/26 08:19:17;;;;;;;1999.90;999.90;;;32.00;99.90;;;;;;5070733;28;20055;-84
2023/06/26 08:21:44;;;;;;;1999.90;999.90;;;31.70;99.90;;;;;;5051820;28;20136;-86
2023/06/26 08:24:10;;;;;;;1999.90;999.90;;;31.00;99.90;;;;;;5057414;28;20052;-85
2023/06/26 08:26:37;;;;;;;1999.90;999.90;;;31.10;99.90;;;;;;5073389;28;20390;-84
2023/06/26 08:29:09;;;;;;;1999.90;999.90;;;31.70;99.90;;;;;;5070020;28;20057;-85
2023/06/26 08:31:35;;;;;;;1999.90;999.90;;;32.30;99.90;;;;;;5071371;28;20481;-84
2023/06/26 08:34:03;;;;;;;1999.90;999.90;;;33.10;99.90;;;;;;5072418;28;20101;-85
2023/06/26 08:36:28;;;;;;;;;;;33.50;99.90;;;;;;5072833;28;20489;-85
2023/06/26 08:38:54;;;;;;;1999.90;999.90;;;34.00;99.90;;;;;;5072070;28;19931;-85
2023/06/26 08:41:20;;;;;;;1999.90;999.90;;;34.00;99.90;;;;;;5074387;28;20602;-85
2023/06/26 08:43:46;;;;;;;1999.90;999.90;;;34.10;99.90;;;;;;5069839;28;20097;-85
2023/06/26 08:46:12;;;;;;;1999.90;999.90;;;34.30;99.90;;;;;;5071146;28;20079;-85
2023/06/26 08:48:39;;;;;;;1999.90;999.90;;;33.70;99.90;;;;;;5103621;28;20137;-85
2023/06/26 08:51:17;;;;;;;1999.90;999.90;;;32.10;99.90;;;;;;5073040;28;20044;-85
2023/06/26 08:53:45;;;;;;;1999.90;999.90;;;30.80;99.90;;;;;;5071572;28;20245;-86
2023/06/26 08:56:13;;;;;;;1999.90;999.90;;;30.40;99.90;;;;;;5070777;28;20059;-85
2023/06/26 08:58:39;;;;;;;1999.90;999.90;;;30.60;99.90;;;;;;5069847;28;20526;-85
2023/06/26 09:01:05;;;;;;;1999.90;999.90;;;30.70;99.90;;;;;;5068932;28;20044;-85
2023/06/26 09:03:32;;;;;;;1999.90;999.90;;;31.00;99.90;;;;;;5071571;28;20048;-85
2023/06/26 09:05:58;;;;;;;1999.90;999.90;;;30.50;99.90;;;;;;5104754;28;20048;-85
2023/06/26 09:08:24;;;;;;;1999.90;999.90;;;30.80;99.90;;;;;;5070732;28;20060;-88
2023/06/26 09:10:51;;;;;;;1999.90;999.90;;;30.80;99.90;;;;;;5071572;28;20062;-85
2023/06/26 09:13:18;;;;;;;1999.90;999.90;;;30.50;99.90;;;;;;5071485;28;20052;-84
2023/06/26 09:15:44;;;;;;;;;;;30.30;99.90;;;;;;5070808;28;20538;-86
2023/06/26 09:18:10;;;;;;;1999.90;999.90;;;30.80;99.90;;;;;;5071462;28;19927;-85
2023/06/26 09:20:36;;;;;;;1999.90;999.90;;;31.60;99.90;;;;;;5070697;28;20052;-85
2023/06/26 09:23:02;;;;;;;1999.90;999.90;;;31.60;99.90;;;;;;5072669;28;20114;-86
2023/06/26 09:25:29;;;;;;;1999.90;999.90;;;31.60;99.90;;;;;;5069396;28;20378;-87
2023/06/26 09:27:55;;;;;;;1999.90;999.90;;;31.40;99.90;;;;;;5071293;28;20075;-86
2023/06/26 09:30:21;;;;;;;1999.90;999.90;;;32.00;99.90;;;;;;5069609;28;20051;-85
2023/06/26 09:32:47;;;;;;;1999.90;999.90;;;32.90;99.90;;;;;;5072583;28;20395;-84
2023/06/26 09:35:13;;;;;;;1999.90;999.90;;;33.20;99.90;;;;;;5071355;28;20049;-84
2023/06/26 09:37:40;;;;;;;1999.90;999.90;;;33.20;99.90;;;;;;5069897;28;20094;-85
2023/06/26 09:40:07;;;;;;;1999.90;999.90;;;33.20;99.90;;;;;;5073267;28;20380;-86
2023/06/26 09:42:32;;;;;;;1999.90;999.90;;;33.60;99.90;;;;;;5105316;28;20170;-85
2023/06/26 09:44:59;;;;;;;1999.90;999.90;;;33.60;99.90;;;;;;5073030;28;20123;-88
2023/06/26 09:47:25;;;;;;;1999.90;999.90;;;33.60;99.90;;;;;;5053739;28;20036;-84
2023/06/26 09:49:52;;;;;;;1999.90;999.90;;;33.00;99.90;;;;;;5072632;28;20063;-85
2023/06/26 09:52:19;;;;;;;1999.90;999.90;;;32.00;99.90;;;;;;5071140;28;20551;-84
2023/06/26 09:54:45;;;;;;;1999.90;999.90;;;31.20;99.90;;;;;;5066248;28;20432;-85
2023/06/26 09:57:16;;;;;;;1999.90;999.90;;;31.60;99.90;;;;;;5069456;28;20044;-84
2023/06/26 09:59:45;;;;;;;1999.90;999.90;;;32.20;99.90;;;;;;5069540;28;20040;-84
2023/06/26 10:02:11;;;;;;;1999.90;999.90;;;31.40;99.90;;;;;;5071959;28;20048;-86
2023/06/26 10:04:37;;;;;;;1999.90;999.90;;;31.20;99.90;;;;;;5071447;28;20488;-85
2023/06/26 10:07:17;;;;;;;1999.90;999.90;;;31.70;99.90;;;;;;5069009;28;20040;-84
2023/06/26 10:09:48;;;;;;;1999.90;999.90;;;32.80;99.90;;;;;;5069063;28;20106;-85
2023/06/26 10:12:28;;;;;;;1999.90;999.90;;;33.40;99.90;;;;;;5071988;28;20118;-84
2023/06/26 10:14:55;;;;;;;1999.90;999.90;;;32.90;99.90;;;;;;5070287;28;20053;-85
2023/06/26 10:17:21;;;;;;;1999.90;999.90;;;31.70;99.90;;;;;;5070677;28;20129;-85
2023/06/26 10:19:49;;;;;;;1999.90;999.90;;;30.80;99.90;;;;;;5070273;28;20048;-85
2023/06/26 10:22:20;;;;;;;1999.90;999.90;;;30.60;99.90;;;;;;5101343;28;20067;-85
2023/06/26 10:24:47;;;;;;;1999.90;999.90;;;31.50;99.90;;;;;;5067414;28;20049;-85
2023/06/26 10:27:20;;;;;;;1999.90;999.90;;;32.50;99.90;;;;;;5065551;28;20115;-89
2023/06/26 10:29:59;;;;;;;1999.90;999.90;;;33.70;99.90;;;;;;5050862;28;20052;-86
2023/06/26 10:32:26;;;;;;;1999.90;999.90;;;34.80;99.90;;;;;;5070917;28;20094;-83
2023/06/26 10:34:52;;;;;;;;;;;35.00;99.90;;;;;;5071491;28;20044;-86
2023/06/26 10:37:18;;;;;;;1999.90;999.90;;;33.70;99.90;;;;;;5098984;28;19924;-85
2023/06/26 10:39:51;;;;;;;1999.90;999.90;;;32.20;99.90;;;;;;5070720;28;20051;-85
2023/06/26 10:42:18;;;;;;;1999.90;999.90;;;33.10;99.90;;;;;;5070668;28;20139;-85
2023/06/26 10:44:46;;;;;;;1999.90;999.90;;;33.30;99.90;;;;;;5070653;28;20564;-85
2023/06/26 10:47:29;;;;;;;1999.90;999.90;;;33.70;99.90;;;;;;5066525;28;20055;-86
2023/06/26 10:49:54;;;;;;;1999.90;999.90;;;34.30;99.90;;;;;;5069641;28;20045;-89
2023/06/26 10:52:20;;;;;;;1999.90;999.90;;;34.80;99.90;;;;;;5097887;28;20711;-85
2023/06/26 10:54:46;;;;;;;1999.90;999.90;;;34.30;99.90;;;;;;5070919;28;20059;-84
2023/06/26 10:57:23;;;;;;;1999.90;999.90;;;33.10;99.90;;;;;;5068451;28;20040;-86
2023/06/26 11:00:08;;;;;;;1999.90;999.90;;;32.60;99.90;;;;;;5069740;28;20064;-84
2023/06/26 11:02:48;;;;;;;1999.90;999.90;;;33.10;99.90;;;;;;5054749;28;20123;-84
2023/06/26 11:05:27;;;;;;;1999.90;999.90;;;33.00;99.90;;;;;;5070613;28;20051;-85
2023/06/26 11:08:07;;;;;;;1999.90;999.90;;;33.40;99.90;;;;;;5048333;28;20485;-87
2023/06/26 11:11:02;;;;;;;1999.90;999.90;;;32.90;99.90;;;;;;5091818;28;20063;-85
2023/06/26 11:13:30;;;;;;;1999.90;999.90;;;33.20;99.90;;;;;;5031467;28;20528;-84
2023/06/26 11:15:56;;;;;;;1999.90;999.90;;;33.00;99.90;;;;;;5071905;28;20044;-84
2023/06/26 11:18:23;;;;;;;1999.90;999.90;;;32.20;99.90;;;;;;5073355;28;20048;-87
2023/06/26 11:20:49;;;;;;;;;;;32.30;99.90;;;;;;5102840;28;20454;-85
2023/06/26 11:23:22;;;;;;;1999.90;999.90;;;32.30;99.90;;;;;;5072979;28;19995;-84
2023/06/26 11:25:48;;;;;;;1999.90;999.90;;;32.70;99.90;;;;;;5074541;28;20107;-88
2023/06/26 11:28:13;;;;;;;1999.90;999.90;;;33.20;99.90;;;;;;5071809;28;20496;-85
2023/06/26 11:30:41;;;;;;;1999.90;999.90;;;33.60;99.90;;;;;;5072676;28;20140;-91
2023/06/26 11:33:09;;;;;;;1999.90;999.90;;;34.30;99.90;;;;;;5072030;28;20502;-85
2023/06/26 11:35:35;;;;;;;1999.90;999.90;;;33.60;99.90;;;;;;5088432;28;20480;-85
2023/06/26 11:38:06;;;;;;;1999.90;999.90;;;32.70;99.90;;;;;;5068479;28;20059;-85
2023/06/26 11:40:36;;;;;;;1999.90;999.90;;;31.60;99.90;;;;;;5073574;28;20054;-84
2023/06/26 11:43:03;;;;;;;1999.90;999.90;;;31.10;99.90;;;;;;5072235;28;20048;-83
2023/06/26 11:45:30;;;;;;;1999.90;999.90;;;30.60;99.90;;;;;;5105771;28;20059;-84
2023/06/26 11:47:57;;;;;;;1999.90;999.90;;;31.00;99.90;;;;;;5073188;28;20041;-86
2023/06/26 11:50:24;;;;;;;1999.90;999.90;;;31.70;99.90;;;;;;5071765;28;20532;-85
2023/06/26 11:52:57;;;;;;;1999.90;999.90;;;32.10;99.90;;;;;;5071781;28;20044;-85
2023/06/26 11:55:24;;;;;;;1999.90;999.90;;;31.30;99.90;;;;;;5072103;28;20146;-83
2023/06/26 11:57:53;;;;;;;1999.90;999.90;;;30.30;99.90;;;;;;5074088;28;20036;-84
2023/06/26 12:00:19;;;;;;;1999.90;999.90;;;30.10;99.90;;;;;;5074713;28;20059;-83